Terminal Aerodrome Forecast
Issued by NWS

Home | Current Version | Previous Version | Text Only | Print | Product List | Glossary On
Versions: 1 2 3 4 5 6 7 8 9 10 11 12 13 14 15 16
000
FTUS43 KIND 042300
TAFHUF
TAF
KHUF 042330Z 0500/0524 23008KT P6SM SCT060 BKN150
     FM050400 18007KT P6SM VCSH SCT050 BKN100
     FM050900 19006KT P6SM SCT040 BKN150
     FM051500 22012KT P6SM SCT050 BKN250=

USA.gov is the U.S. government's official web portal to all federal, state and local government web resources and services.